Time;durP1;ratioP1;P1;durP2;ratioP2;P2;SDS_P1;SDS_P2;PMS_P1;PMS_P2;Temp;Humidity;BMP_temperature;BMP_pressure;BME280_temperature;BME280_humidity;BME280_pressure;Samples;Min_cycle;Max_cycle;Signal;HPM_P1;HPM_P2
2022/08/22 00:03:02;;;;;;;5.63;5.23;;;;;;;25.52;50.47;94399.44;6087862;28;103087;-71
2022/08/22 00:06:29;;;;;;;4.93;4.53;;;;;;;25.54;50.86;94406.03;6089436;28;103192;-71
2022/08/22 00:09:42;;;;;;;5.60;5.10;;;;;;;25.55;50.29;94396.88;6077318;28;104026;-71
2022/08/22 00:12:51;;;;;;;5.00;4.63;;;;;;;25.55;50.32;94406.81;6089032;28;103149;-71
2022/08/22 00:16:05;;;;;;;5.93;5.43;;;;;;;25.58;50.09;94406.91;6089692;28;104981;-72
2022/08/22 00:19:22;;;;;;;5.47;5.07;;;;;;;25.62;50.12;94406.97;6088848;28;102830;-70
2022/08/22 00:22:32;;;;;;;4.70;4.40;;;;;;;25.59;50.33;94400.41;6083381;28;103401;-71
2022/08/22 00:25:44;;;;;;;5.60;5.10;;;;;;;25.58;50.54;94398.84;6088302;28;104114;-70
2022/08/22 00:28:51;;;;;;;5.20;4.70;;;;;;;25.60;49.95;94410.00;6089123;28;103048;-71
2022/08/22 00:32:05;;;;;;;5.37;4.97;;;;;;;25.57;50.47;94401.88;6076763;28;103314;-71
2022/08/22 00:35:17;;;;;;;5.77;5.27;;;;;;;25.54;50.76;94394.50;6088177;28;103124;-71
2022/08/22 00:38:26;;;;;;;6.20;5.50;;;;;;;25.57;50.46;94391.94;6088675;28;104260;-72
2022/08/22 00:41:59;;;;;;;6.30;5.80;;;;;;;25.62;50.40;94394.34;6088611;28;103296;-71
2022/08/22 00:45:47;;;;;;;6.10;5.60;;;;;;;25.64;50.23;94394.00;6075202;28;103736;-71
2022/08/22 00:49:12;;;;;;;6.13;5.63;;;;;;;25.61;50.22;94384.78;6093470;28;106814;-71
2022/08/22 00:52:40;;;;;;;5.93;5.43;;;;;;;25.60;50.24;94374.41;6090242;28;103786;-73
2022/08/22 00:55:53;;;;;;;6.63;6.13;;;;;;;25.60;50.07;94391.25;6068257;28;104183;-71
2022/08/22 00:59:17;;;;;;;7.43;6.83;;;;;;;25.59;50.54;94387.00;6090103;28;104067;-71
2022/08/22 01:02:36;;;;;;;7.20;6.60;;;;;;;25.61;50.15;94389.34;6086784;28;102890;-71
2022/08/22 01:05:54;;;;;;;7.90;7.30;;;;;;;25.62;50.25;94382.88;6077595;28;104168;-70
2022/08/22 01:09:09;;;;;;;8.10;7.40;;;;;;;25.58;50.08;94385.47;6088496;28;104175;-71
2022/08/22 01:12:33;;;;;;;8.47;7.87;;;;;;;25.53;50.05;94379.56;6083427;28;103076;-71
2022/08/22 01:15:40;;;;;;;8.80;8.00;;;;;;;25.58;50.38;94387.34;6088265;28;103041;-70
2022/08/22 01:18:58;;;;;;;8.40;7.70;;;;;;;25.58;50.82;94390.81;6070464;28;105900;-71
2022/08/22 01:22:27;;;;;;;8.77;8.10;;;;;;;25.57;50.72;94388.47;6089256;28;102970;-71
2022/08/22 01:26:09;;;;;;;9.17;8.10;;;;;;;25.60;50.45;94388.56;6070189;28;102942;-71
2022/08/22 01:29:56;;;;;;;9.80;9.00;;;;;;;25.55;50.74;94385.38;6077683;28;103347;-71
2022/08/22 01:33:23;;;;;;;8.93;8.30;;;;;;;25.57;50.51;94391.94;6086808;28;103143;-71
2022/08/22 01:36:45;;;;;;;9.00;8.20;;;;;;;25.59;50.33;94392.38;6086253;28;103564;-69
2022/08/22 01:40:23;;;;;;;9.70;8.90;;;;;;;25.52;50.79;94394.84;6076172;28;103328;-69
2022/08/22 01:43:52;;;;;;;7.67;7.07;;;;;;;25.52;50.28;94396.75;6081177;28;103639;-69
2022/08/22 01:47:08;;;;;;;8.77;8.07;;;;;;;25.54;50.52;94399.88;6087184;28;104531;-69
2022/08/22 01:50:23;;;;;;;9.07;8.27;;;;;;;25.53;50.85;94399.09;6088696;28;103369;-68
2022/08/22 01:53:39;;;;;;;8.77;8.17;;;;;;;25.46;50.97;94392.78;6077666;28;103151;-69
2022/08/22 01:56:45;;;;;;;9.70;8.53;;;;;;;25.47;50.89;94383.63;6074741;28;103525;-68
2022/08/22 01:59:52;;;;;;;7.97;7.30;;;;;;;25.43;50.98;94396.94;6087198;28;105765;-68
2022/08/22 02:03:12;;;;;;;10.00;8.27;;;;;;;25.40;51.05;94394.16;6075526;28;104943;-68
2022/08/22 02:06:21;;;;;;;9.40;7.20;;;;;;;25.44;50.95;94390.44;6086818;28;103258;-68
2022/08/22 02:09:36;;;;;;;8.20;7.40;;;;;;;25.47;50.73;94387.06;6087469;28;104274;-68
2022/08/22 02:12:45;;;;;;;8.83;7.50;;;;;;;25.43;51.53;94394.25;6088330;28;103144;-68
2022/08/22 02:15:56;;;;;;;34.10;31.10;;;;;;;25.31;51.43;94388.91;6074560;28;103198;-68
2022/08/22 02:19:28;;;;;;;27.47;25.07;;;;;;;25.35;51.03;94387.91;6082693;28;103198;-68
2022/08/22 02:22:41;;;;;;;18.90;17.40;;;;;;;25.37;50.91;94390.25;6083890;28;103594;-68
2022/08/22 02:25:54;;;;;;;14.77;13.50;;;;;;;25.34;51.08;94390.91;6077592;28;102956;-68
2022/08/22 02:29:05;;;;;;;14.63;13.23;;;;;;;25.32;50.79;94393.94;6085728;28;103193;-68
2022/08/22 02:32:19;;;;;;;39.37;36.07;;;;;;;25.34;50.75;94394.34;6086389;28;103092;-68
2022/08/22 02:35:29;;;;;;;25.03;22.63;;;;;;;25.37;50.83;94395.59;6085509;28;103212;-68
2022/08/22 02:38:38;;;;;;;23.50;21.43;;;;;;;25.41;50.38;94390.34;6073953;28;103327;-68
2022/08/22 02:41:52;;;;;;;27.30;24.90;;;;;;;25.38;50.79;94391.81;6076566;28;103200;-69
2022/08/22 02:45:06;;;;;;;23.87;21.87;;;;;;;25.34;51.18;94393.56;6088826;28;103954;-67
2022/08/22 02:48:20;;;;;;;20.43;18.63;;;;;;;25.35;50.67;94390.59;6078936;28;103491;-69
2022/08/22 02:51:36;;;;;;;17.53;16.03;;;;;;;25.43;50.49;94393.47;6084599;28;104131;-68
2022/08/22 02:54:54;;;;;;;17.13;15.73;;;;;;;25.48;50.34;94388.63;6084472;28;103924;-69
2022/08/22 02:58:07;;;;;;;14.83;13.63;;;;;;;25.46;49.85;94393.56;6086896;28;104077;-69
2022/08/22 03:01:22;;;;;;;10.87;9.80;;;;;;;25.40;49.89;94397.63;6073152;28;103760;-68
2022/08/22 03:04:47;;;;;;;10.60;9.00;;;;;;;25.40;50.20;94396.84;6083170;28;102932;-68
2022/08/22 03:08:08;;;;;;;9.40;8.50;;;;;;;25.39;49.78;94393.38;6091400;28;103129;-68
2022/08/22 03:11:21;;;;;;;10.30;9.40;;;;;;;25.40;49.79;94397.63;6065893;28;103994;-68
2022/08/22 03:14:32;;;;;;;31.20;28.50;;;;;;;25.42;50.11;94398.03;6090626;28;103425;-69
2022/08/22 03:17:45;;;;;;;31.77;28.97;;;;;;;25.45;50.31;94400.03;6086727;28;103367;-69
2022/08/22 03:20:54;;;;;;;21.23;19.43;;;;;;;25.49;49.82;94408.16;6089965;28;103097;-68
2022/08/22 03:24:03;;;;;;;20.37;18.70;;;;;;;25.55;50.04;94406.81;6076518;28;103209;-69
2022/08/22 03:27:16;;;;;;;17.30;15.80;;;;;;;25.55;49.92;94407.59;6089462;28;103250;-68
2022/08/22 03:30:42;;;;;;;14.63;13.33;;;;;;;25.58;49.56;94408.78;6090933;28;104478;-69
2022/08/22 03:34:05;;;;;;;13.90;12.70;;;;;;;25.58;49.98;94414.94;6084791;28;106944;-69
2022/08/22 03:37:18;;;;;;;14.17;12.73;;;;;;;25.54;50.08;94406.03;6089313;28;105997;-69
2022/08/22 03:40:25;;;;;;;14.80;13.50;;;;;;;25.53;50.49;94409.81;6085606;28;103115;-69
2022/08/22 03:44:00;;;;;;;14.70;13.27;;;;;;;25.48;50.41;94412.75;6088742;28;103283;-69
2022/08/22 03:47:29;;;;;;;13.60;12.40;;;;;;;25.43;50.67;94406.88;6078635;28;104140;-69
2022/08/22 03:51:17;;;;;;;20.10;18.30;;;;;;;25.52;50.14;94407.47;6081958;28;104205;-69
2022/08/22 03:54:51;;;;;;;15.20;13.70;;;;;;;25.59;50.12;94407.66;6071913;28;103309;-68
2022/08/22 03:58:29;;;;;;;10.57;9.67;;;;;;;25.56;49.82;94409.16;6076190;28;103360;-68
2022/08/22 04:01:54;;;;;;;11.30;10.20;;;;;;;25.53;50.11;94398.31;6082423;28;104035;-68
2022/08/22 04:05:44;;;;;;;14.20;10.40;;;;;;;25.50;50.13;94401.69;6087783;28;103212;-68
2022/08/22 04:09:30;;;;;;;11.43;10.23;;;;;;;25.50;51.12;94397.09;6056610;28;103291;-67
2022/08/22 04:12:58;;;;;;;10.20;9.20;;;;;;;25.44;50.34;94403.84;6046878;28;103068;-69
2022/08/22 04:16:55;;;;;;;10.13;9.13;;;;;;;25.39;50.42;94412.13;6088603;28;103276;-60
2022/08/22 04:20:33;;;;;;;9.03;8.10;;;;;;;25.37;50.84;94403.63;6042769;28;104300;-60
2022/08/22 04:23:58;;;;;;;8.47;7.60;;;;;;;25.36;50.61;94400.19;6045493;28;104380;-58
2022/08/22 04:27:10;;;;;;;11.47;7.53;;;;;;;25.41;50.19;94404.53;6089033;28;103375;-58
2022/08/22 04:30:24;;;;;;;8.73;7.90;;;;;;;25.40;49.68;94404.88;6089613;28;103119;-58
2022/08/22 04:33:32;;;;;;;9.77;8.97;;;;;;;25.31;50.28;94413.00;6080778;28;103968;-58
2022/08/22 04:36:40;;;;;;;10.10;8.70;;;;;;;25.32;50.35;94410.00;6090879;28;103772;-58
2022/08/22 04:39:49;;;;;;;8.80;8.00;;;;;;;25.38;50.17;94407.91;6088740;28;104315;-58
2022/08/22 04:42:59;;;;;;;9.20;8.30;;;;;;;25.41;50.14;94417.94;6078766;28;103115;-58
2022/08/22 04:46:13;;;;;;;9.47;8.67;;;;;;;25.36;50.23;94412.78;6088330;28;104107;-58
2022/08/22 04:49:24;;;;;;;8.47;7.70;;;;;;;25.32;50.72;94425.28;6088224;28;103028;-58
2022/08/22 04:52:41;;;;;;;9.93;8.90;;;;;;;25.32;50.09;94417.25;6088261;28;104223;-59
2022/08/22 04:55:54;;;;;;;9.03;8.23;;;;;;;25.31;49.92;94423.72;6079615;28;103255;-58
2022/08/22 04:59:01;;;;;;;9.47;8.60;;;;;;;25.30;50.35;94433.66;6090681;28;103233;-58
2022/08/22 05:02:09;;;;;;;10.13;9.23;;;;;;;25.23;50.55;94425.44;6090211;28;104051;-58
2022/08/22 05:05:15;;;;;;;9.53;8.63;;;;;;;24.92;50.84;94423.41;6084538;28;103108;-58
2022/08/22 05:08:24;;;;;;;8.97;8.20;;;;;;;24.82;51.36;94431.13;6086821;28;103543;-57
2022/08/22 05:11:30;;;;;;;10.67;9.53;;;;;;;24.83;50.98;94430.00;6090136;28;103984;-58
2022/08/22 05:14:39;;;;;;;10.33;8.87;;;;;;;24.60;51.66;94443.06;6089976;28;103544;-58
2022/08/22 05:17:48;;;;;;;11.83;10.73;;;;;;;24.49;52.22;94446.19;6080505;28;104303;-58
2022/08/22 05:20:52;;;;;;;11.93;10.50;;;;;;;24.43;52.09;94444.88;6089780;28;103321;-58
2022/08/22 05:24:02;;;;;;;11.37;10.37;;;;;;;24.34;52.28;94441.50;6089076;28;103132;-58
2022/08/22 05:27:11;;;;;;;16.83;15.33;;;;;;;24.63;52.11;94447.75;6088925;28;103465;-57
2022/08/22 05:30:23;;;;;;;17.20;15.60;;;;;;;24.90;51.14;94449.75;6078830;28;104570;-58
2022/08/22 05:33:30;;;;;;;14.10;12.67;;;;;;;25.03;51.37;94445.94;6089547;28;102988;-58
2022/08/22 05:36:39;;;;;;;16.00;13.70;;;;;;;25.06;51.28;94449.81;6089313;28;104208;-58
2022/08/22 05:39:46;;;;;;;12.90;11.70;;;;;;;25.16;51.20;94449.34;6078678;28;103325;-57
2022/08/22 05:42:51;;;;;;;11.67;10.73;;;;;;;25.17;51.03;94450.88;6089698;28;103085;-58
2022/08/22 05:45:57;;;;;;;12.87;11.50;;;;;;;25.20;51.18;94460.13;6089047;28;103996;-58
2022/08/22 05:49:03;;;;;;;19.50;17.70;;;;;;;25.22;51.05;94463.28;6089730;28;103372;-58
2022/08/22 05:52:16;;;;;;;13.53;12.23;;;;;;;25.02;51.73;94465.75;6079032;28;104220;-58
2022/08/22 05:55:27;;;;;;;13.23;11.53;;;;;;;24.85;51.94;94471.38;6089466;28;103837;-58
2022/08/22 05:58:49;;;;;;;12.40;11.13;;;;;;;24.84;52.24;94474.38;6088421;28;103327;-58
2022/08/22 06:02:01;;;;;;;13.10;12.00;;;;;;;25.02;51.50;94467.66;6083609;28;103259;-58
2022/08/22 06:05:07;;;;;;;13.70;12.40;;;;;;;25.02;51.82;94479.16;6086070;28;104610;-58
2022/08/22 06:08:22;;;;;;;13.53;12.30;;;;;;;24.88;52.63;94475.28;6088700;28;103297;-58
2022/08/22 06:11:29;;;;;;;14.83;12.93;;;;;;;24.78;53.04;94479.19;6089225;28;104056;-58
2022/08/22 06:14:43;;;;;;;16.80;12.73;;;;;;;24.70;53.59;94482.78;6078743;28;104960;-58
2022/08/22 06:17:49;;;;;;;13.90;12.60;;;;;;;24.70;53.53;94472.88;6089556;28;104230;-58
2022/08/22 06:20:56;;;;;;;13.77;12.40;;;;;;;24.50;53.40;94482.53;6089235;28;103131;-57
2022/08/22 06:24:01;;;;;;;14.30;13.00;;;;;;;24.51;53.73;94480.63;6089106;28;103239;-58
2022/08/22 06:27:08;;;;;;;13.70;12.53;;;;;;;24.32;54.25;94478.50;6079743;28;106165;-57
2022/08/22 06:30:15;;;;;;;12.53;11.30;;;;;;;24.38;54.02;94489.78;6087680;28;104309;-58
2022/08/22 06:33:24;;;;;;;13.20;12.03;;;;;;;24.47;53.91;94482.41;6089120;28;103264;-58
2022/08/22 06:36:30;;;;;;;13.20;11.90;;;;;;;24.68;53.65;94490.34;6079362;28;103223;-56
2022/08/22 06:39:36;;;;;;;12.00;10.90;;;;;;;25.00;53.50;94491.31;6088765;28;103312;-57
2022/08/22 06:42:42;;;;;;;13.47;12.10;;;;;;;25.15;51.89;94487.94;6088097;28;104133;-57
2022/08/22 06:45:46;;;;;;;13.70;12.47;;;;;;;25.22;52.14;94490.84;6088535;28;104336;-58
2022/08/22 06:48:50;;;;;;;12.93;11.83;;;;;;;25.28;51.82;94486.00;6078791;28;103127;-58
2022/08/22 06:52:00;;;;;;;13.00;11.87;;;;;;;25.28;52.46;94486.00;6088776;28;104328;-57
2022/08/22 06:55:07;;;;;;;13.37;12.13;;;;;;;25.29;51.60;94484.91;6088833;28;103237;-57
2022/08/22 06:58:17;;;;;;;12.13;11.13;;;;;;;25.26;52.22;94477.53;6087568;28;104031;-58
2022/08/22 07:01:23;;;;;;;11.97;10.97;;;;;;;25.34;51.45;94485.44;6081972;28;103084;-57
2022/08/22 07:04:27;;;;;;;12.43;11.20;;;;;;;25.40;52.26;94486.00;6088858;28;104028;-58
2022/08/22 07:07:32;;;;;;;11.33;10.43;;;;;;;25.47;52.01;94488.88;6088813;28;106899;-57
2022/08/22 07:10:36;;;;;;;12.20;11.20;;;;;;;25.46;52.69;94479.28;6078829;28;104134;-58
2022/08/22 07:13:45;;;;;;;12.43;11.33;;;;;;;25.46;53.23;94484.63;6087512;28;103301;-58
2022/08/22 07:16:56;;;;;;;11.60;10.60;;;;;;;25.55;52.66;94492.56;6088408;28;103226;-58
2022/08/22 07:20:06;;;;;;;11.77;10.77;;;;;;;25.39;51.78;94492.50;6087536;28;103252;-58
2022/08/22 07:23:23;;;;;;;12.70;11.60;;;;;;;25.30;51.96;94494.50;6078366;28;104119;-58
2022/08/22 07:26:32;;;;;;;11.73;10.73;;;;;;;25.23;52.13;94494.28;6088783;28;104855;-58
2022/08/22 07:29:45;;;;;;;11.90;10.57;;;;;;;25.43;51.50;94493.38;6087534;28;102759;-58
2022/08/22 07:32:55;;;;;;;11.53;10.53;;;;;;;25.52;50.88;94496.66;6080096;28;104188;-58
2022/08/22 07:36:17;;;;;;;11.00;10.10;;;;;;;25.57;50.52;94491.09;6087169;28;103250;-58
2022/08/22 07:39:28;;;;;;;11.13;10.27;;;;;;;25.57;51.28;94491.09;6088604;28;104146;-58
2022/08/22 07:42:42;;;;;;;10.70;9.70;;;;;;;25.57;51.24;94491.09;6087560;28;103294;-58
2022/08/22 07:45:52;;;;;;;10.83;9.93;;;;;;;25.61;51.25;94491.94;6077109;28;103418;-58
2022/08/22 07:48:59;;;;;;;14.87;11.27;;;;;;;25.69;50.76;94493.69;6088246;28;103049;-58
2022/08/22 07:52:13;;;;;;;11.10;10.20;;;;;;;25.75;50.45;94486.19;6088591;28;102955;-58
2022/08/22 07:55:21;;;;;;;10.97;9.97;;;;;;;25.78;50.08;94495.44;6086940;28;103253;-58
2022/08/22 07:58:28;;;;;;;11.20;10.20;;;;;;;25.79;50.20;94491.66;6086254;28;104242;-58
2022/08/22 08:01:32;;;;;;;11.23;10.33;;;;;;;25.85;49.85;94495.63;6092031;28;103279;-59
2022/08/22 08:04:37;;;;;;;11.00;10.00;;;;;;;25.82;50.22;94491.75;6090515;28;104141;-59
2022/08/22 08:07:46;;;;;;;11.57;10.47;;;;;;;25.78;50.50;94490.88;6082157;28;102837;-59
2022/08/22 08:10:53;;;;;;;11.37;10.30;;;;;;;25.78;50.22;94485.50;6091798;28;103093;-58
2022/08/22 08:14:00;;;;;;;11.30;10.30;;;;;;;25.73;50.44;94476.94;6090924;28;103221;-58
2022/08/22 08:17:09;;;;;;;10.57;9.67;;;;;;;25.77;50.21;94483.19;6091305;28;103474;-59
2022/08/22 08:20:30;;;;;;;11.40;10.13;;;;;;;25.82;50.03;94480.25;6082198;28;102699;-58
2022/08/22 08:23:41;;;;;;;10.80;9.70;;;;;;;25.78;50.51;94469.44;6091413;28;103769;-59
2022/08/22 08:30:18;;;;;;;11.13;10.23;;;;;;;25.89;49.69;94475.06;6079705;28;103903;-58
2022/08/22 08:33:26;;;;;;;11.67;10.57;;;;;;;25.87;49.48;94477.28;6090980;28;102711;-58
2022/08/22 08:36:39;;;;;;;11.20;10.10;;;;;;;25.97;49.50;94476.81;6089938;28;104295;-58
2022/08/22 08:39:47;;;;;;;11.57;10.60;;;;;;;26.01;49.53;94477.69;6090310;28;104256;-58
2022/08/22 08:46:56;;;;;;;10.90;10.00;;;;;;;26.06;49.65;94472.09;6090789;28;103082;-61
2022/08/22 08:50:23;;;;;;;9.60;8.70;;;;;;;25.99;49.33;94469.19;6090149;28;103341;-59
2022/08/22 08:53:57;;;;;;;11.53;10.43;;;;;;;26.05;49.06;94472.44;6079573;28;103734;-59
2022/08/22 08:57:10;;;;;;;11.70;10.70;;;;;;;26.06;49.13;94472.09;6090096;28;103317;-59
2022/08/22 09:00:20;;;;;;;11.03;10.13;;;;;;;26.08;49.22;94467.16;6090549;28;104395;-58
2022/08/22 09:04:04;;;;;;;11.00;10.10;;;;;;;26.08;49.45;94469.84;6084572;28;103503;-58
2022/08/22 09:07:41;;;;;;;10.73;9.73;;;;;;;26.09;48.76;94466.03;6090399;28;103184;-58
2022/08/22 09:11:31;;;;;;;11.03;10.07;;;;;;;26.08;48.82;94466.38;6089702;28;104337;-58
2022/08/22 09:15:07;;;;;;;10.50;9.60;;;;;;;26.09;49.33;94468.72;6084618;28;103183;-58
2022/08/22 09:19:11;;;;;;;11.40;9.97;;;;;;;25.94;49.36;94461.41;6089380;28;105001;-58
2022/08/22 09:22:30;;;;;;;10.80;9.90;;;;;;;25.72;50.17;94465.44;5992752;29;103170;-58
2022/08/22 09:25:51;;;;;;;10.67;9.77;;;;;;;25.92;49.50;94459.06;6085050;28;104362;-59
2022/08/22 09:29:00;;;;;;;10.30;9.50;;;;;;;26.11;48.34;94463.78;6084231;28;103564;-58
2022/08/22 09:32:11;;;;;;;10.97;10.07;;;;;;;26.07;48.68;94462.94;6090329;28;104474;-58
2022/08/22 09:35:25;;;;;;;10.10;9.40;;;;;;;26.18;48.92;94461.28;6089670;28;103030;-58
2022/08/22 09:38:47;;;;;;;9.60;8.80;;;;;;;26.18;48.28;94460.50;6080232;28;104289;-58
2022/08/22 09:41:59;;;;;;;10.40;9.47;;;;;;;26.21;48.62;94455.25;6089542;28;104095;-59
2022/08/22 09:45:47;;;;;;;14.13;13.00;;;;;;;26.35;48.86;94454.78;6089241;28;104447;-58
2022/08/22 09:49:02;;;;;;;12.30;11.30;;;;;;;26.34;49.04;94447.06;6072677;28;103076;-59
2022/08/22 09:52:20;;;;;;;11.50;10.40;;;;;;;26.33;48.60;94440.94;6089211;28;102842;-58
2022/08/22 09:55:46;;;;;;;11.67;10.67;;;;;;;26.31;48.11;94427.09;6089348;28;103560;-58
2022/08/22 09:59:01;;;;;;;10.70;9.70;;;;;;;26.35;48.40;94424.50;6089665;28;104026;-58
2022/08/22 10:02:16;;;;;;;10.40;9.50;;;;;;;26.35;48.35;94427.16;6078593;28;103388;-58
2022/08/22 10:05:27;;;;;;;11.00;10.10;;;;;;;26.50;48.76;94426.38;6088894;28;102992;-58
2022/08/22 10:08:55;;;;;;;10.80;9.90;;;;;;;26.41;47.72;94425.78;6089552;28;103145;-58
2022/08/22 10:12:02;;;;;;;10.47;9.47;;;;;;;26.40;48.41;94416.97;6078895;28;104076;-59
2022/08/22 10:15:19;;;;;;;10.63;9.70;;;;;;;26.41;48.19;94409.69;6088539;28;103181;-58
2022/08/22 10:18:35;;;;;;;11.83;10.87;;;;;;;26.39;47.75;94406.59;6088033;28;104010;-58
2022/08/22 10:21:46;;;;;;;10.70;9.80;;;;;;;26.38;47.87;94403.13;6088970;28;102988;-58
2022/08/22 10:25:07;;;;;;;11.40;10.30;;;;;;;26.33;48.08;94395.34;6078011;28;103078;-58
2022/08/22 10:28:21;;;;;;;9.87;9.03;;;;;;;26.44;48.21;94393.69;6088649;28;104210;-58
2022/08/22 10:31:34;;;;;;;10.47;9.57;;;;;;;26.36;48.19;94383.13;6088977;28;103931;-58
2022/08/22 10:35:03;;;;;;;10.80;9.90;;;;;;;26.35;48.50;94384.25;6078381;28;103853;-58
2022/08/22 10:38:17;;;;;;;11.07;10.17;;;;;;;26.35;48.16;94378.88;6088786;28;103286;-59
2022/08/22 10:41:30;;;;;;;10.63;9.73;;;;;;;26.37;47.99;94376.63;6088174;28;104262;-59
2022/08/22 10:44:42;;;;;;;11.20;10.10;;;;;;;26.34;48.28;94367.38;6088698;28;102783;-56
2022/08/22 10:48:28;;;;;;;11.10;10.20;;;;;;;26.54;48.78;94382.38;6079042;28;105276;-57
2022/08/22 10:51:39;;;;;;;11.40;10.57;;;;;;;26.55;48.71;94378.59;6088621;28;104166;-57
2022/08/22 10:54:48;;;;;;;10.97;10.07;;;;;;;26.49;47.95;94379.19;6088365;28;103359;-58
2022/08/22 10:58:06;;;;;;;10.93;10.03;;;;;;;26.54;48.76;94376.25;6078222;28;102969;-57
2022/08/22 11:01:15;;;;;;;11.30;10.40;;;;;;;26.51;48.13;94379.63;6088344;28;102994;-57
2022/08/22 11:05:03;;;;;;;12.10;10.47;;;;;;;26.43;48.93;94375.25;6088119;28;103050;-60
2022/08/22 11:08:33;;;;;;;12.00;11.07;;;;;;;26.47;48.83;94384.94;6083332;28;103145;-57
2022/08/22 11:11:42;;;;;;;10.53;9.63;;;;;;;26.43;48.11;94376.03;6061089;28;104059;-57
2022/08/22 11:15:06;;;;;;;11.10;10.10;;;;;;;26.43;48.16;94370.66;6088387;28;103150;-57
2022/08/22 11:18:21;;;;;;;11.10;10.10;;;;;;;26.41;47.98;94366.78;6088159;28;104122;-58
2022/08/22 11:21:33;;;;;;;10.13;9.20;;;;;;;26.47;47.89;94374.19;6078390;28;103023;-57
2022/08/22 11:25:21;;;;;;;10.57;9.67;;;;;;;26.34;47.53;94369.28;6087168;28;103327;-58
2022/08/22 11:29:01;;;;;;;9.67;8.97;;;;;;;26.41;47.87;94374.81;6023338;28;104122;-58
2022/08/22 11:32:28;;;;;;;10.17;9.27;;;;;;;26.41;47.64;94369.47;6081360;28;102987;-58
2022/08/22 11:35:41;;;;;;;11.43;9.27;;;;;;;26.27;47.39;94361.88;6091971;28;103475;-58
2022/08/22 11:38:57;;;;;;;10.47;9.57;;;;;;;26.27;47.36;94361.88;6092201;28;103613;-58
2022/08/22 11:42:10;;;;;;;10.80;9.77;;;;;;;26.24;46.83;94368.72;6086183;28;103021;-58
2022/08/22 11:45:19;;;;;;;11.43;9.80;;;;;;;26.30;46.92;94361.16;6086905;28;104223;-58
2022/08/22 11:48:31;;;;;;;10.93;10.00;;;;;;;26.38;46.98;94356.72;6091575;28;102903;-58
2022/08/22 11:52:02;;;;;;;13.13;12.13;;;;;;;26.43;46.39;94353.78;6092237;28;103302;-58
2022/08/22 11:55:29;;;;;;;13.00;11.80;;;;;;;26.46;46.94;94348.47;6078755;28;103770;-58
2022/08/22 11:58:48;;;;;;;11.67;10.73;;;;;;;26.42;47.25;94344.97;6090934;28;104129;-58
2022/08/22 12:01:58;;;;;;;12.00;11.00;;;;;;;26.41;47.37;94343.41;6091209;28;103076;-58
2022/08/22 12:05:10;;;;;;;11.10;10.10;;;;;;;26.37;47.08;94342.53;6086180;28;103956;-58
2022/08/22 12:08:45;;;;;;;10.23;9.47;;;;;;;26.32;46.88;94348.16;6090681;28;103162;-58
2022/08/22 12:12:02;;;;;;;10.87;9.97;;;;;;;26.31;47.25;94335.88;6091229;28;103119;-58
2022/08/22 12:15:13;;;;;;;9.83;9.03;;;;;;;26.28;47.72;94342.72;6091518;28;103363;-58
2022/08/22 12:18:41;;;;;;;10.27;9.50;;;;;;;26.19;48.18;94349.41;6080593;28;104369;-58
2022/08/22 12:22:11;;;;;;;10.50;9.63;;;;;;;26.24;47.49;94336.53;6091612;28;102783;-58
2022/08/22 12:25:28;;;;;;;10.20;9.40;;;;;;;26.21;47.50;94323.00;6090562;28;103025;-58
2022/08/22 12:28:39;;;;;;;10.00;9.20;;;;;;;26.28;47.13;94318.59;6080954;28;104094;-58
2022/08/22 12:32:13;;;;;;;9.70;8.50;;;;;;;26.28;46.99;94310.53;6089862;28;103250;-58
2022/08/22 12:35:29;;;;;;;10.33;9.33;;;;;;;26.39;47.24;94301.97;6091445;28;103053;-57
2022/08/22 12:38:46;;;;;;;10.20;9.43;;;;;;;26.47;47.46;94298.28;6086864;28;103220;-56
2022/08/22 12:42:31;;;;;;;10.43;9.63;;;;;;;26.50;47.38;94290.31;6085314;28;104108;-57
2022/08/22 12:45:45;;;;;;;10.40;9.00;;;;;;;26.51;47.45;94293.75;6091149;28;104132;-58
2022/08/22 12:49:21;;;;;;;10.10;9.10;;;;;;;26.42;46.96;94277.88;6091115;28;104261;-58
2022/08/22 12:52:42;;;;;;;9.90;8.90;;;;;;;26.37;47.41;94280.03;6081021;28;104125;-58
2022/08/22 12:56:02;;;;;;;10.00;9.20;;;;;;;26.31;47.50;94284.13;6090724;28;104167;-58
2022/08/22 12:59:26;;;;;;;10.30;9.50;;;;;;;26.22;47.94;94282.44;6090992;28;103093;-58
2022/08/22 13:02:34;;;;;;;9.67;8.97;;;;;;;26.30;47.68;94287.94;6079885;28;104216;-58
2022/08/22 13:05:40;;;;;;;10.67;9.77;;;;;;;26.30;47.40;94285.28;6090617;28;103383;-61
2022/08/22 13:08:46;;;;;;;11.30;10.20;;;;;;;26.24;48.09;94290.16;6089816;28;103075;-57
2022/08/22 13:11:54;;;;;;;10.87;9.77;;;;;;;26.24;48.15;94293.59;6090054;28;103587;-57
2022/08/22 13:15:06;;;;;;;10.10;9.30;;;;;;;26.31;48.28;94314.44;6079539;28;104242;-58
2022/08/22 13:18:18;;;;;;;9.43;8.63;;;;;;;26.23;48.70;94329.59;6090461;28;103316;-58
2022/08/22 13:21:34;;;;;;;11.20;10.30;;;;;;;26.17;48.46;94320.25;6090132;28;103353;-58
2022/08/22 13:24:43;;;;;;;11.00;10.10;;;;;;;26.03;48.98;94322.59;6082210;28;104017;-59
2022/08/22 13:27:58;;;;;;;11.63;10.77;;;;;;;26.08;48.82;94337.66;6089665;28;104102;-58
2022/08/22 13:31:03;;;;;;;13.07;10.90;;;;;;;26.01;49.12;94348.22;6090161;28;104279;-58
2022/08/22 13:34:12;;;;;;;12.80;11.60;;;;;;;26.03;49.59;94359.38;6090218;28;104106;-58
2022/08/22 13:37:25;;;;;;;13.13;11.83;;;;;;;26.02;49.50;94369.31;6078296;28;103582;-58
2022/08/22 13:40:32;;;;;;;12.47;11.37;;;;;;;25.89;49.52;94363.25;6089182;28;103097;-58
2022/08/22 13:43:59;;;;;;;11.73;10.63;;;;;;;25.88;48.60;94358.25;6090403;28;102886;-58
2022/08/22 13:47:09;;;;;;;10.87;9.77;;;;;;;25.92;48.90;94364.47;6085137;28;103572;-58
2022/08/22 13:50:20;;;;;;;11.00;9.90;;;;;;;25.95;48.22;94382.53;6085628;28;103549;-58
2022/08/22 13:53:29;;;;;;;11.20;10.20;;;;;;;26.00;48.30;94395.69;6089355;28;103206;-57
2022/08/22 13:56:40;;;;;;;11.20;10.10;;;;;;;26.04;47.98;94401.16;6089329;28;104224;-57
2022/08/22 13:59:59;;;;;;;10.83;9.90;;;;;;;26.03;48.03;94410.31;6078676;28;104108;-58
2022/08/22 14:03:16;;;;;;;12.57;11.37;;;;;;;26.05;48.13;94408.88;6073074;28;104204;-57
2022/08/22 14:06:34;;;;;;;13.43;11.97;;;;;;;26.07;48.29;94417.34;6089186;28;103811;-58
2022/08/22 14:09:52;;;;;;;14.07;11.77;;;;;;;26.07;48.81;94422.72;6082910;28;103129;-58
2022/08/22 14:13:32;;;;;;;13.20;12.10;;;;;;;26.05;48.99;94427.63;6083743;28;103687;-57
2022/08/22 14:16:47;;;;;;;13.23;12.03;;;;;;;26.08;49.72;94437.66;6087436;28;104108;-53
2022/08/22 14:19:57;;;;;;;11.97;10.97;;;;;;;26.11;49.45;94436.19;6088799;28;103087;-52
2022/08/22 14:23:09;;;;;;;12.90;11.63;;;;;;;26.13;49.19;94432.03;6077993;28;104116;-53
2022/08/22 14:26:23;;;;;;;12.33;11.23;;;;;;;26.17;49.13;94445.53;6088390;28;104009;-54
2022/08/22 14:29:45;;;;;;;13.83;11.20;;;;;;;26.23;49.46;94442.25;6088083;28;104067;-56
2022/08/22 14:32:57;;;;;;;12.43;11.17;;;;;;;26.20;49.45;94444.81;6079447;28;104173;-54
2022/08/22 14:36:04;;;;;;;12.43;11.30;;;;;;;26.19;49.41;94432.53;6088961;28;104321;-52
2022/08/22 14:39:11;;;;;;;14.80;13.30;;;;;;;26.18;49.36;94425.63;6088458;28;103173;-53
2022/08/22 14:42:19;;;;;;;14.27;12.87;;;;;;;26.18;49.80;94429.09;6087739;28;104151;-54
2022/08/22 14:45:27;;;;;;;14.97;13.47;;;;;;;26.18;49.47;94423.72;6078199;28;103338;-54
2022/08/22 14:48:41;;;;;;;12.03;10.83;;;;;;;26.14;49.40;94420.19;6088643;28;104232;-54
2022/08/22 14:51:49;;;;;;;13.77;12.17;;;;;;;26.15;49.71;94423.63;6088463;28;103133;-55
2022/08/22 14:55:09;;;;;;;13.23;11.90;;;;;;;26.09;50.34;94425.03;6084404;28;103351;-56
2022/08/22 14:58:18;;;;;;;13.27;11.73;;;;;;;26.05;50.02;94424.19;6083709;28;104666;-55
2022/08/22 15:01:31;;;;;;;13.40;12.00;;;;;;;25.97;50.80;94415.91;6087998;28;103070;-55
2022/08/22 15:04:40;;;;;;;13.43;12.03;;;;;;;25.98;50.75;94424.75;6092434;28;103267;-55
2022/08/22 15:07:57;;;;;;;14.30;12.40;;;;;;;25.98;50.82;94424.75;6081663;28;104135;-55